sensor_id;sensor_type;location;lat;lon;timestamp;P1;durP1;ratioP1;P2;durP2;ratioP2
69392;SDS011;56582;44.624;20.378;2022-11-25T00:02:06;24.98;;;14.95;;
69392;SDS011;56582;44.624;20.378;2022-11-25T00:04:31;22.90;;;14.17;;
69392;SDS011;56582;44.624;20.378;2022-11-25T00:07:01;23.92;;;14.70;;
69392;SDS011;56582;44.624;20.378;2022-11-25T00:09:27;24.30;;;15.02;;
69392;SDS011;56582;44.624;20.378;2022-11-25T00:11:52;23.93;;;15.43;;
69392;SDS011;56582;44.624;20.378;2022-11-25T00:14:17;24.27;;;14.37;;
69392;SDS011;56582;44.624;20.378;2022-11-25T00:16:43;25.80;;;15.23;;
69392;SDS011;56582;44.624;20.378;2022-11-25T00:19:09;25.23;;;13.55;;
69392;SDS011;56582;44.624;20.378;2022-11-25T00:21:35;22.77;;;14.05;;
69392;SDS011;56582;44.624;20.378;2022-11-25T00:24:02;28.93;;;15.67;;
69392;SDS011;56582;44.624;20.378;2022-11-25T00:26:29;27.60;;;17.45;;
69392;SDS011;56582;44.624;20.378;2022-11-25T00:28:59;27.73;;;16.27;;
69392;SDS011;56582;44.624;20.378;2022-11-25T00:31:27;24.63;;;15.75;;
69392;SDS011;56582;44.624;20.378;2022-11-25T00:33:55;23.90;;;15.57;;
69392;SDS011;56582;44.624;20.378;2022-11-25T00:38:54;29.08;;;16.58;;
69392;SDS011;56582;44.624;20.378;2022-11-25T00:41:21;27.13;;;15.45;;
69392;SDS011;56582;44.624;20.378;2022-11-25T00:44:07;24.05;;;15.25;;
69392;SDS011;56582;44.624;20.378;2022-11-25T00:46:53;25.98;;;15.20;;
69392;SDS011;56582;44.624;20.378;2022-11-25T00:49:19;23.17;;;13.20;;
69392;SDS011;56582;44.624;20.378;2022-11-25T00:51:44;22.03;;;13.20;;
69392;SDS011;56582;44.624;20.378;2022-11-25T00:54:10;18.65;;;11.68;;
69392;SDS011;56582;44.624;20.378;2022-11-25T00:56:36;19.17;;;11.43;;
69392;SDS011;56582;44.624;20.378;2022-11-25T00:59:01;21.92;;;12.95;;
69392;SDS011;56582;44.624;20.378;2022-11-25T01:01:27;18.20;;;12.30;;
69392;SDS011;56582;44.624;20.378;2022-11-25T01:03:53;16.88;;;10.43;;
69392;SDS011;56582;44.624;20.378;2022-11-25T01:06:18;18.00;;;10.37;;
69392;SDS011;56582;44.624;20.378;2022-11-25T01:08:44;16.95;;;10.18;;
69392;SDS011;56582;44.624;20.378;2022-11-25T01:11:11;14.63;;;8.77;;
69392;SDS011;56582;44.624;20.378;2022-11-25T01:13:38;17.98;;;10.85;;
69392;SDS011;56582;44.624;20.378;2022-11-25T01:16:05;21.05;;;12.77;;
69392;SDS011;56582;44.624;20.378;2022-11-25T01:18:31;25.67;;;15.73;;
69392;SDS011;56582;44.624;20.378;2022-11-25T01:21:14;26.50;;;13.43;;
69392;SDS011;56582;44.624;20.378;2022-11-25T01:23:44;28.73;;;14.90;;
69392;SDS011;56582;44.624;20.378;2022-11-25T01:26:11;25.98;;;15.02;;
69392;SDS011;56582;44.624;20.378;2022-11-25T01:28:38;28.63;;;15.45;;
69392;SDS011;56582;44.624;20.378;2022-11-25T01:33:43;26.33;;;13.90;;
69392;SDS011;56582;44.624;20.378;2022-11-25T01:36:13;24.55;;;14.52;;
69392;SDS011;56582;44.624;20.378;2022-11-25T01:38:40;23.20;;;14.15;;
69392;SDS011;56582;44.624;20.378;2022-11-25T01:41:07;22.23;;;12.85;;
69392;SDS011;56582;44.624;20.378;2022-11-25T01:43:34;24.95;;;14.07;;
69392;SDS011;56582;44.624;20.378;2022-11-25T01:46:08;23.10;;;13.93;;
69392;SDS011;56582;44.624;20.378;2022-11-25T01:51:37;23.27;;;14.13;;
69392;SDS011;56582;44.624;20.378;2022-11-25T01:54:06;21.05;;;13.40;;
69392;SDS011;56582;44.624;20.378;2022-11-25T01:56:36;20.38;;;12.85;;
69392;SDS011;56582;44.624;20.378;2022-11-25T01:59:06;18.30;;;12.07;;
69392;SDS011;56582;44.624;20.378;2022-11-25T02:01:32;20.20;;;12.73;;
69392;SDS011;56582;44.624;20.378;2022-11-25T02:03:57;19.47;;;11.57;;
69392;SDS011;56582;44.624;20.378;2022-11-25T02:08:52;20.33;;;12.00;;
69392;SDS011;56582;44.624;20.378;2022-11-25T02:11:30;23.92;;;14.77;;
69392;SDS011;56582;44.624;20.378;2022-11-25T02:13:59;23.40;;;14.00;;
69392;SDS011;56582;44.624;20.378;2022-11-25T02:16:25;15.40;;;10.10;;
69392;SDS011;56582;44.624;20.378;2022-11-25T02:18:51;20.03;;;13.60;;
69392;SDS011;56582;44.624;20.378;2022-11-25T02:21:17;22.03;;;14.00;;
69392;SDS011;56582;44.624;20.378;2022-11-25T02:23:54;22.63;;;14.38;;
69392;SDS011;56582;44.624;20.378;2022-11-25T02:26:24;19.65;;;13.52;;
69392;SDS011;56582;44.624;20.378;2022-11-25T02:28:50;21.83;;;15.00;;
69392;SDS011;56582;44.624;20.378;2022-11-25T02:31:20;20.00;;;13.45;;
69392;SDS011;56582;44.624;20.378;2022-11-25T02:33:46;17.97;;;12.10;;
69392;SDS011;56582;44.624;20.378;2022-11-25T02:36:13;19.25;;;12.50;;
69392;SDS011;56582;44.624;20.378;2022-11-25T02:38:42;20.17;;;13.20;;
69392;SDS011;56582;44.624;20.378;2022-11-25T02:41:12;20.67;;;14.32;;
69392;SDS011;56582;44.624;20.378;2022-11-25T02:43:39;23.23;;;14.80;;
69392;SDS011;56582;44.624;20.378;2022-11-25T02:48:35;19.73;;;13.50;;
69392;SDS011;56582;44.624;20.378;2022-11-25T02:51:03;19.77;;;11.77;;
69392;SDS011;56582;44.624;20.378;2022-11-25T02:53:29;19.90;;;12.70;;
69392;SDS011;56582;44.624;20.378;2022-11-25T02:55:54;21.88;;;12.93;;
69392;SDS011;56582;44.624;20.378;2022-11-25T02:58:20;18.57;;;13.47;;
69392;SDS011;56582;44.624;20.378;2022-11-25T03:00:46;21.07;;;12.53;;
69392;SDS011;56582;44.624;20.378;2022-11-25T03:03:11;17.88;;;11.30;;
69392;SDS011;56582;44.624;20.378;2022-11-25T03:05:37;17.47;;;11.67;;
69392;SDS011;56582;44.624;20.378;2022-11-25T03:08:03;19.63;;;12.00;;
69392;SDS011;56582;44.624;20.378;2022-11-25T03:10:29;18.60;;;11.50;;
69392;SDS011;56582;44.624;20.378;2022-11-25T03:12:55;19.35;;;12.43;;
69392;SDS011;56582;44.624;20.378;2022-11-25T03:15:21;19.08;;;12.13;;
69392;SDS011;56582;44.624;20.378;2022-11-25T03:17:46;20.00;;;11.73;;
69392;SDS011;56582;44.624;20.378;2022-11-25T03:20:12;19.33;;;11.90;;
69392;SDS011;56582;44.624;20.378;2022-11-25T03:22:39;18.35;;;11.35;;
69392;SDS011;56582;44.624;20.378;2022-11-25T03:25:06;16.20;;;11.70;;
69392;SDS011;56582;44.624;20.378;2022-11-25T03:27:32;18.75;;;12.05;;
69392;SDS011;56582;44.624;20.378;2022-11-25T03:29:58;18.10;;;12.23;;
69392;SDS011;56582;44.624;20.378;2022-11-25T03:32:24;18.83;;;12.93;;
69392;SDS011;56582;44.624;20.378;2022-11-25T03:34:50;17.13;;;11.55;;
69392;SDS011;56582;44.624;20.378;2022-11-25T03:37:16;17.70;;;12.30;;
69392;SDS011;56582;44.624;20.378;2022-11-25T03:39:41;18.57;;;12.00;;
69392;SDS011;56582;44.624;20.378;2022-11-25T03:42:07;19.03;;;12.63;;
69392;SDS011;56582;44.624;20.378;2022-11-25T03:44:32;20.52;;;13.75;;
69392;SDS011;56582;44.624;20.378;2022-11-25T03:46:58;24.50;;;13.43;;
69392;SDS011;56582;44.624;20.378;2022-11-25T03:49:23;22.97;;;14.80;;
69392;SDS011;56582;44.624;20.378;2022-11-25T03:51:49;19.55;;;12.70;;
69392;SDS011;56582;44.624;20.378;2022-11-25T03:54:14;20.10;;;12.27;;
69392;SDS011;56582;44.624;20.378;2022-11-25T03:56:40;20.93;;;13.13;;
69392;SDS011;56582;44.624;20.378;2022-11-25T03:59:05;20.40;;;13.33;;
69392;SDS011;56582;44.624;20.378;2022-11-25T04:01:30;21.90;;;13.68;;
69392;SDS011;56582;44.624;20.378;2022-11-25T04:03:56;19.40;;;12.50;;
69392;SDS011;56582;44.624;20.378;2022-11-25T04:06:21;19.57;;;13.30;;
69392;SDS011;56582;44.624;20.378;2022-11-25T04:08:48;18.60;;;11.85;;
69392;SDS011;56582;44.624;20.378;2022-11-25T04:11:14;21.38;;;13.93;;
69392;SDS011;56582;44.624;20.378;2022-11-25T04:13:39;21.33;;;13.70;;
69392;SDS011;56582;44.624;20.378;2022-11-25T04:16:05;19.50;;;13.47;;
69392;SDS011;56582;44.624;20.378;2022-11-25T04:18:30;18.07;;;12.70;;
69392;SDS011;56582;44.624;20.378;2022-11-25T04:20:56;20.43;;;13.10;;
69392;SDS011;56582;44.624;20.378;2022-11-25T04:23:22;22.05;;;12.90;;
69392;SDS011;56582;44.624;20.378;2022-11-25T04:25:48;20.90;;;13.00;;
69392;SDS011;56582;44.624;20.378;2022-11-25T04:28:14;19.33;;;13.02;;
69392;SDS011;56582;44.624;20.378;2022-11-25T04:30:40;17.73;;;12.30;;
69392;SDS011;56582;44.624;20.378;2022-11-25T04:33:05;17.77;;;12.70;;
69392;SDS011;56582;44.624;20.378;2022-11-25T04:35:31;17.17;;;12.90;;
69392;SDS011;56582;44.624;20.378;2022-11-25T04:37:56;18.27;;;12.48;;
69392;SDS011;56582;44.624;20.378;2022-11-25T04:40:22;42.43;;;13.43;;
69392;SDS011;56582;44.624;20.378;2022-11-25T04:42:47;19.77;;;12.40;;
69392;SDS011;56582;44.624;20.378;2022-11-25T04:45:14;20.27;;;12.45;;
69392;SDS011;56582;44.624;20.378;2022-11-25T04:47:41;21.53;;;12.87;;
69392;SDS011;56582;44.624;20.378;2022-11-25T04:50:17;17.70;;;12.88;;
69392;SDS011;56582;44.624;20.378;2022-11-25T04:52:44;18.85;;;12.43;;
69392;SDS011;56582;44.624;20.378;2022-11-25T04:55:10;20.13;;;12.73;;
69392;SDS011;56582;44.624;20.378;2022-11-25T04:57:35;21.10;;;13.43;;
69392;SDS011;56582;44.624;20.378;2022-11-25T05:00:01;22.85;;;14.48;;
69392;SDS011;56582;44.624;20.378;2022-11-25T05:02:27;29.83;;;18.23;;
69392;SDS011;56582;44.624;20.378;2022-11-25T05:04:53;34.88;;;18.35;;
69392;SDS011;56582;44.624;20.378;2022-11-25T05:07:21;27.50;;;15.23;;
69392;SDS011;56582;44.624;20.378;2022-11-25T05:09:48;26.83;;;14.93;;
69392;SDS011;56582;44.624;20.378;2022-11-25T05:12:16;24.35;;;13.55;;
69392;SDS011;56582;44.624;20.378;2022-11-25T05:14:43;27.27;;;15.37;;
69392;SDS011;56582;44.624;20.378;2022-11-25T05:17:11;27.17;;;16.55;;
69392;SDS011;56582;44.624;20.378;2022-11-25T05:19:39;26.88;;;17.20;;
69392;SDS011;56582;44.624;20.378;2022-11-25T05:22:04;28.30;;;17.33;;
69392;SDS011;56582;44.624;20.378;2022-11-25T05:24:30;24.03;;;15.23;;
69392;SDS011;56582;44.624;20.378;2022-11-25T05:26:55;30.40;;;18.30;;
69392;SDS011;56582;44.624;20.378;2022-11-25T05:29:21;33.10;;;20.00;;
69392;SDS011;56582;44.624;20.378;2022-11-25T05:31:46;29.40;;;17.40;;
69392;SDS011;56582;44.624;20.378;2022-11-25T05:34:11;32.90;;;20.60;;
69392;SDS011;56582;44.624;20.378;2022-11-25T05:36:37;26.40;;;16.08;;
69392;SDS011;56582;44.624;20.378;2022-11-25T05:39:02;23.00;;;15.13;;
69392;SDS011;56582;44.624;20.378;2022-11-25T05:41:28;20.57;;;13.67;;
69392;SDS011;56582;44.624;20.378;2022-11-25T05:43:53;24.13;;;15.43;;
69392;SDS011;56582;44.624;20.378;2022-11-25T05:46:19;23.60;;;16.53;;
69392;SDS011;56582;44.624;20.378;2022-11-25T05:48:44;22.10;;;14.23;;
69392;SDS011;56582;44.624;20.378;2022-11-25T05:51:10;23.98;;;15.50;;
69392;SDS011;56582;44.624;20.378;2022-11-25T05:53:36;19.63;;;13.13;;
69392;SDS011;56582;44.624;20.378;2022-11-25T05:56:03;24.30;;;14.93;;
69392;SDS011;56582;44.624;20.378;2022-11-25T05:58:30;24.47;;;16.20;;
69392;SDS011;56582;44.624;20.378;2022-11-25T06:00:57;23.10;;;14.95;;
69392;SDS011;56582;44.624;20.378;2022-11-25T06:03:23;24.67;;;14.40;;
69392;SDS011;56582;44.624;20.378;2022-11-25T06:05:50;20.80;;;14.60;;
69392;SDS011;56582;44.624;20.378;2022-11-25T06:08:15;20.07;;;13.50;;
69392;SDS011;56582;44.624;20.378;2022-11-25T06:10:41;20.10;;;13.93;;
69392;SDS011;56582;44.624;20.378;2022-11-25T06:13:07;23.17;;;14.85;;
69392;SDS011;56582;44.624;20.378;2022-11-25T06:15:33;24.75;;;17.02;;
69392;SDS011;56582;44.624;20.378;2022-11-25T06:17:59;20.73;;;13.90;;
69392;SDS011;56582;44.624;20.378;2022-11-25T06:20:24;23.83;;;14.93;;
69392;SDS011;56582;44.624;20.378;2022-11-25T06:22:51;36.27;;;21.33;;
69392;SDS011;56582;44.624;20.378;2022-11-25T06:25:17;29.73;;;19.85;;
69392;SDS011;56582;44.624;20.378;2022-11-25T06:27:43;25.47;;;17.57;;
69392;SDS011;56582;44.624;20.378;2022-11-25T06:30:08;29.17;;;16.55;;
69392;SDS011;56582;44.624;20.378;2022-11-25T06:32:34;27.77;;;17.03;;
69392;SDS011;56582;44.624;20.378;2022-11-25T06:34:59;30.10;;;17.77;;
69392;SDS011;56582;44.624;20.378;2022-11-25T06:37:25;33.20;;;21.27;;
69392;SDS011;56582;44.624;20.378;2022-11-25T06:39:51;39.60;;;23.60;;
69392;SDS011;56582;44.624;20.378;2022-11-25T06:42:16;37.23;;;23.03;;
69392;SDS011;56582;44.624;20.378;2022-11-25T06:44:41;29.90;;;18.17;;
69392;SDS011;56582;44.624;20.378;2022-11-25T06:47:07;29.60;;;17.97;;
69392;SDS011;56582;44.624;20.378;2022-11-25T06:49:32;28.87;;;19.00;;
69392;SDS011;56582;44.624;20.378;2022-11-25T06:51:58;24.58;;;15.15;;
69392;SDS011;56582;44.624;20.378;2022-11-25T06:54:23;21.63;;;14.63;;
69392;SDS011;56582;44.624;20.378;2022-11-25T06:56:49;22.87;;;14.00;;
69392;SDS011;56582;44.624;20.378;2022-11-25T06:59:17;23.17;;;15.65;;
69392;SDS011;56582;44.624;20.378;2022-11-25T07:01:43;21.38;;;13.60;;
69392;SDS011;56582;44.624;20.378;2022-11-25T07:04:09;26.53;;;17.20;;
69392;SDS011;56582;44.624;20.378;2022-11-25T07:06:34;27.80;;;16.73;;
69392;SDS011;56582;44.624;20.378;2022-11-25T07:09:00;26.80;;;17.30;;
69392;SDS011;56582;44.624;20.378;2022-11-25T07:11:36;24.57;;;14.80;;
69392;SDS011;56582;44.624;20.378;2022-11-25T07:14:04;21.40;;;13.88;;
69392;SDS011;56582;44.624;20.378;2022-11-25T07:16:32;22.75;;;13.75;;
69392;SDS011;56582;44.624;20.378;2022-11-25T07:18:58;20.73;;;13.98;;
69392;SDS011;56582;44.624;20.378;2022-11-25T07:21:26;19.50;;;11.90;;
69392;SDS011;56582;44.624;20.378;2022-11-25T07:23:52;20.08;;;13.63;;
69392;SDS011;56582;44.624;20.378;2022-11-25T07:28:53;23.20;;;14.88;;
69392;SDS011;56582;44.624;20.378;2022-11-25T07:31:21;27.40;;;15.85;;
69392;SDS011;56582;44.624;20.378;2022-11-25T07:33:50;33.08;;;16.10;;
69392;SDS011;56582;44.624;20.378;2022-11-25T07:36:17;19.55;;;14.40;;
69392;SDS011;56582;44.624;20.378;2022-11-25T07:38:42;19.17;;;10.93;;
69392;SDS011;56582;44.624;20.378;2022-11-25T07:41:11;15.67;;;11.60;;
69392;SDS011;56582;44.624;20.378;2022-11-25T07:43:38;15.02;;;9.20;;
69392;SDS011;56582;44.624;20.378;2022-11-25T07:46:15;14.65;;;9.20;;
69392;SDS011;56582;44.624;20.378;2022-11-25T07:48:47;20.45;;;12.60;;
69392;SDS011;56582;44.624;20.378;2022-11-25T07:51:17;19.33;;;12.77;;
69392;SDS011;56582;44.624;20.378;2022-11-25T07:53:44;15.13;;;9.55;;
69392;SDS011;56582;44.624;20.378;2022-11-25T07:56:11;17.85;;;11.98;;
69392;SDS011;56582;44.624;20.378;2022-11-25T07:58:37;24.15;;;13.43;;
69392;SDS011;56582;44.624;20.378;2022-11-25T08:01:03;22.83;;;14.20;;
69392;SDS011;56582;44.624;20.378;2022-11-25T08:03:33;18.55;;;11.25;;
69392;SDS011;56582;44.624;20.378;2022-11-25T08:06:03;23.97;;;13.07;;
69392;SDS011;56582;44.624;20.378;2022-11-25T08:08:31;23.10;;;13.07;;
69392;SDS011;56582;44.624;20.378;2022-11-25T08:10:57;20.90;;;14.15;;
69392;SDS011;56582;44.624;20.378;2022-11-25T08:13:22;23.93;;;13.90;;
69392;SDS011;56582;44.624;20.378;2022-11-25T08:15:49;18.77;;;12.75;;
69392;SDS011;56582;44.624;20.378;2022-11-25T08:18:14;20.60;;;11.45;;
69392;SDS011;56582;44.624;20.378;2022-11-25T08:20:40;18.77;;;13.10;;
69392;SDS011;56582;44.624;20.378;2022-11-25T08:23:06;17.33;;;11.20;;
69392;SDS011;56582;44.624;20.378;2022-11-25T08:25:31;22.63;;;14.43;;
69392;SDS011;56582;44.624;20.378;2022-11-25T08:27:59;19.33;;;12.60;;
69392;SDS011;56582;44.624;20.378;2022-11-25T08:30:25;19.02;;;12.68;;
69392;SDS011;56582;44.624;20.378;2022-11-25T08:32:51;17.20;;;9.25;;
69392;SDS011;56582;44.624;20.378;2022-11-25T08:35:17;16.50;;;10.73;;
69392;SDS011;56582;44.624;20.378;2022-11-25T08:37:44;22.70;;;13.02;;
69392;SDS011;56582;44.624;20.378;2022-11-25T08:40:10;16.48;;;10.60;;
69392;SDS011;56582;44.624;20.378;2022-11-25T08:42:36;15.70;;;10.85;;
69392;SDS011;56582;44.624;20.378;2022-11-25T08:45:02;16.93;;;10.90;;
69392;SDS011;56582;44.624;20.378;2022-11-25T08:47:28;16.17;;;10.65;;
69392;SDS011;56582;44.624;20.378;2022-11-25T08:49:54;18.67;;;11.43;;
69392;SDS011;56582;44.624;20.378;2022-11-25T08:52:19;21.13;;;11.45;;
69392;SDS011;56582;44.624;20.378;2022-11-25T08:54:45;16.73;;;10.00;;
69392;SDS011;56582;44.624;20.378;2022-11-25T08:57:11;17.52;;;11.18;;
69392;SDS011;56582;44.624;20.378;2022-11-25T08:59:37;16.90;;;11.38;;
69392;SDS011;56582;44.624;20.378;2022-11-25T09:02:03;14.47;;;9.00;;
69392;SDS011;56582;44.624;20.378;2022-11-25T09:04:29;19.17;;;11.85;;
69392;SDS011;56582;44.624;20.378;2022-11-25T09:06:54;16.17;;;10.57;;
69392;SDS011;56582;44.624;20.378;2022-11-25T09:09:20;15.07;;;8.83;;
69392;SDS011;56582;44.624;20.378;2022-11-25T09:11:45;16.90;;;11.07;;
69392;SDS011;56582;44.624;20.378;2022-11-25T09:14:11;18.07;;;10.63;;
69392;SDS011;56582;44.624;20.378;2022-11-25T09:16:36;19.47;;;11.70;;
69392;SDS011;56582;44.624;20.378;2022-11-25T09:19:02;18.65;;;11.18;;
69392;SDS011;56582;44.624;20.378;2022-11-25T09:21:28;15.17;;;8.70;;
69392;SDS011;56582;44.624;20.378;2022-11-25T09:23:53;16.60;;;10.05;;
69392;SDS011;56582;44.624;20.378;2022-11-25T09:26:23;19.57;;;10.40;;
69392;SDS011;56582;44.624;20.378;2022-11-25T09:28:50;18.48;;;10.98;;
69392;SDS011;56582;44.624;20.378;2022-11-25T09:31:16;17.40;;;9.70;;
69392;SDS011;56582;44.624;20.378;2022-11-25T09:33:42;14.75;;;8.63;;
69392;SDS011;56582;44.624;20.378;2022-11-25T09:36:08;15.27;;;9.05;;
69392;SDS011;56582;44.624;20.378;2022-11-25T09:38:35;14.93;;;9.82;;
69392;SDS011;56582;44.624;20.378;2022-11-25T09:41:05;14.43;;;7.87;;
69392;SDS011;56582;44.624;20.378;2022-11-25T09:44:56;13.00;;;9.80;;
69392;SDS011;56582;44.624;20.378;2022-11-25T09:53:11;12.20;;;7.33;;
69392;SDS011;56582;44.624;20.378;2022-11-25T09:55:23;10.45;;;7.10;;
69392;SDS011;56582;44.624;20.378;2022-11-25T10:00:43;11.48;;;7.15;;
69392;SDS011;56582;44.624;20.378;2022-11-25T10:05:44;11.60;;;7.40;;
69392;SDS011;56582;44.624;20.378;2022-11-25T10:08:27;12.23;;;6.95;;
69392;SDS011;56582;44.624;20.378;2022-11-25T10:11:02;12.60;;;8.00;;
69392;SDS011;56582;44.624;20.378;2022-11-25T10:16:47;10.88;;;7.30;;
69392;SDS011;56582;44.624;20.378;2022-11-25T10:22:31;13.88;;;8.70;;
69392;SDS011;56582;44.624;20.378;2022-11-25T10:25:00;14.93;;;8.95;;
69392;SDS011;56582;44.624;20.378;2022-11-25T10:27:37;12.18;;;7.28;;
69392;SDS011;56582;44.624;20.378;2022-11-25T10:30:15;12.43;;;7.97;;
69392;SDS011;56582;44.624;20.378;2022-11-25T10:33:27;13.10;;;8.17;;
69392;SDS011;56582;44.624;20.378;2022-11-25T10:41:02;26.70;;;16.05;;
69392;SDS011;56582;44.624;20.378;2022-11-25T10:43:28;9.10;;;7.40;;
69392;SDS011;56582;44.624;20.378;2022-11-25T10:51:31;13.50;;;9.05;;
69392;SDS011;56582;44.624;20.378;2022-11-25T10:56:50;14.43;;;9.32;;
69392;SDS011;56582;44.624;20.378;2022-11-25T11:01:51;29.45;;;15.27;;
69392;SDS011;56582;44.624;20.378;2022-11-25T11:04:17;23.13;;;13.57;;
69392;SDS011;56582;44.624;20.378;2022-11-25T11:06:45;14.00;;;8.88;;
69392;SDS011;56582;44.624;20.378;2022-11-25T11:12:06;30.67;;;13.87;;
69392;SDS011;56582;44.624;20.378;2022-11-25T11:14:39;25.27;;;12.13;;
69392;SDS011;56582;44.624;20.378;2022-11-25T11:17:07;35.08;;;15.82;;
69392;SDS011;56582;44.624;20.378;2022-11-25T11:22:33;23.85;;;13.18;;
69392;SDS011;56582;44.624;20.378;2022-11-25T11:27:59;12.57;;;8.35;;
69392;SDS011;56582;44.624;20.378;2022-11-25T11:30:29;15.07;;;9.35;;
69392;SDS011;56582;44.624;20.378;2022-11-25T11:33:24;12.15;;;7.38;;
69392;SDS011;56582;44.624;20.378;2022-11-25T11:36:09;13.73;;;8.70;;
69392;SDS011;56582;44.624;20.378;2022-11-25T11:38:55;13.37;;;8.77;;
69392;SDS011;56582;44.624;20.378;2022-11-25T11:41:40;9.43;;;5.82;;
69392;SDS011;56582;44.624;20.378;2022-11-25T11:55:38;20.27;;;10.23;;
69392;SDS011;56582;44.624;20.378;2022-11-25T12:01:05;19.65;;;11.95;;
69392;SDS011;56582;44.624;20.378;2022-11-25T12:03:39;11.15;;;6.50;;
69392;SDS011;56582;44.624;20.378;2022-11-25T12:06:13;11.47;;;5.77;;
69392;SDS011;56582;44.624;20.378;2022-11-25T12:11:38;12.93;;;7.35;;
69392;SDS011;56582;44.624;20.378;2022-11-25T12:14:24;10.80;;;6.10;;
69392;SDS011;56582;44.624;20.378;2022-11-25T12:17:01;9.77;;;7.07;;
69392;SDS011;56582;44.624;20.378;2022-11-25T12:19:37;10.17;;;6.87;;
69392;SDS011;56582;44.624;20.378;2022-11-25T12:22:41;11.50;;;7.53;;
69392;SDS011;56582;44.624;20.378;2022-11-25T12:25:13;13.73;;;8.40;;
69392;SDS011;56582;44.624;20.378;2022-11-25T12:27:45;15.38;;;8.68;;
69392;SDS011;56582;44.624;20.378;2022-11-25T12:30:15;14.90;;;8.70;;
69392;SDS011;56582;44.624;20.378;2022-11-25T12:33:01;13.40;;;7.47;;
69392;SDS011;56582;44.624;20.378;2022-11-25T12:39:14;35.20;;;15.73;;
69392;SDS011;56582;44.624;20.378;2022-11-25T12:41:23;13.05;;;7.82;;
69392;SDS011;56582;44.624;20.378;2022-11-25T12:43:53;10.95;;;7.15;;
69392;SDS011;56582;44.624;20.378;2022-11-25T12:49:04;10.63;;;6.70;;
69392;SDS011;56582;44.624;20.378;2022-11-25T13:00:13;11.83;;;5.80;;
69392;SDS011;56582;44.624;20.378;2022-11-25T13:11:58;13.48;;;8.07;;
69392;SDS011;56582;44.624;20.378;2022-11-25T13:17:53;9.93;;;5.43;;
69392;SDS011;56582;44.624;20.378;2022-11-25T13:25:43;11.93;;;7.10;;
69392;SDS011;56582;44.624;20.378;2022-11-25T13:31:20;12.00;;;8.18;;
69392;SDS011;56582;44.624;20.378;2022-11-25T13:36:20;21.50;;;11.90;;
69392;SDS011;56582;44.624;20.378;2022-11-25T13:46:38;9.32;;;6.68;;
69392;SDS011;56582;44.624;20.378;2022-11-25T13:49:19;15.52;;;11.55;;
69392;SDS011;56582;44.624;20.378;2022-11-25T13:51:55;9.13;;;5.78;;
69392;SDS011;56582;44.624;20.378;2022-11-25T13:54:24;11.25;;;7.97;;
69392;SDS011;56582;44.624;20.378;2022-11-25T14:10:43;13.10;;;7.97;;
69392;SDS011;56582;44.624;20.378;2022-11-25T14:19:00;13.52;;;7.80;;
69392;SDS011;56582;44.624;20.378;2022-11-25T14:21:51;21.23;;;12.70;;
69392;SDS011;56582;44.624;20.378;2022-11-25T14:24:37;18.70;;;9.30;;
69392;SDS011;56582;44.624;20.378;2022-11-25T14:29:59;17.08;;;10.30;;
69392;SDS011;56582;44.624;20.378;2022-11-25T14:32:32;28.17;;;14.15;;
69392;SDS011;56582;44.624;20.378;2022-11-25T14:35:02;30.05;;;15.32;;
69392;SDS011;56582;44.624;20.378;2022-11-25T14:37:38;25.27;;;14.43;;
69392;SDS011;56582;44.624;20.378;2022-11-25T14:40:11;24.27;;;13.20;;
69392;SDS011;56582;44.624;20.378;2022-11-25T14:42:44;21.90;;;14.70;;
69392;SDS011;56582;44.624;20.378;2022-11-25T14:45:22;18.30;;;10.82;;
69392;SDS011;56582;44.624;20.378;2022-11-25T14:47:47;25.48;;;14.95;;
69392;SDS011;56582;44.624;20.378;2022-11-25T14:50:13;35.93;;;18.17;;
69392;SDS011;56582;44.624;20.378;2022-11-25T14:52:39;52.28;;;26.00;;
69392;SDS011;56582;44.624;20.378;2022-11-25T14:55:08;73.60;;;40.40;;
69392;SDS011;56582;44.624;20.378;2022-11-25T14:57:38;48.83;;;25.37;;
69392;SDS011;56582;44.624;20.378;2022-11-25T15:00:09;48.03;;;22.83;;
69392;SDS011;56582;44.624;20.378;2022-11-25T15:02:38;43.58;;;22.52;;
69392;SDS011;56582;44.624;20.378;2022-11-25T15:07:40;47.08;;;24.85;;
69392;SDS011;56582;44.624;20.378;2022-11-25T15:10:26;64.57;;;29.47;;
69392;SDS011;56582;44.624;20.378;2022-11-25T15:12:54;50.42;;;25.33;;
69392;SDS011;56582;44.624;20.378;2022-11-25T15:15:20;30.17;;;16.55;;
69392;SDS011;56582;44.624;20.378;2022-11-25T15:17:45;40.30;;;21.30;;
69392;SDS011;56582;44.624;20.378;2022-11-25T15:20:12;24.30;;;13.67;;
69392;SDS011;56582;44.624;20.378;2022-11-25T15:22:45;26.25;;;15.77;;
69392;SDS011;56582;44.624;20.378;2022-11-25T15:25:14;34.67;;;18.25;;
69392;SDS011;56582;44.624;20.378;2022-11-25T15:27:50;30.13;;;15.45;;
69392;SDS011;56582;44.624;20.378;2022-11-25T15:30:23;34.35;;;17.02;;
69392;SDS011;56582;44.624;20.378;2022-11-25T15:32:50;69.40;;;34.27;;
69392;SDS011;56582;44.624;20.378;2022-11-25T15:35:19;36.35;;;16.33;;
69392;SDS011;56582;44.624;20.378;2022-11-25T15:37:48;26.55;;;14.10;;
69392;SDS011;56582;44.624;20.378;2022-11-25T15:40:53;62.22;;;30.70;;
69392;SDS011;56582;44.624;20.378;2022-11-25T15:43:23;28.63;;;14.02;;
69392;SDS011;56582;44.624;20.378;2022-11-25T15:45:51;25.67;;;13.83;;
69392;SDS011;56582;44.624;20.378;2022-11-25T15:50:58;34.05;;;17.27;;
69392;SDS011;56582;44.624;20.378;2022-11-25T15:53:28;57.80;;;27.02;;
69392;SDS011;56582;44.624;20.378;2022-11-25T15:56:00;32.65;;;18.15;;
69392;SDS011;56582;44.624;20.378;2022-11-25T15:58:27;44.37;;;20.17;;
69392;SDS011;56582;44.624;20.378;2022-11-25T16:03:44;34.38;;;18.88;;
69392;SDS011;56582;44.624;20.378;2022-11-25T16:06:18;26.98;;;15.23;;
69392;SDS011;56582;44.624;20.378;2022-11-25T16:08:58;36.07;;;20.87;;
69392;SDS011;56582;44.624;20.378;2022-11-25T16:11:28;34.15;;;21.10;;
69392;SDS011;56582;44.624;20.378;2022-11-25T16:16:41;37.47;;;21.45;;
69392;SDS011;56582;44.624;20.378;2022-11-25T16:29:14;31.65;;;17.80;;
69392;SDS011;56582;44.624;20.378;2022-11-25T16:31:41;44.90;;;25.50;;
69392;SDS011;56582;44.624;20.378;2022-11-25T16:34:13;86.07;;;46.72;;
69392;SDS011;56582;44.624;20.378;2022-11-25T16:36:40;38.87;;;21.97;;
69392;SDS011;56582;44.624;20.378;2022-11-25T16:39:06;48.20;;;25.88;;
69392;SDS011;56582;44.624;20.378;2022-11-25T16:41:32;46.28;;;25.35;;
69392;SDS011;56582;44.624;20.378;2022-11-25T16:43:59;51.17;;;27.07;;
69392;SDS011;56582;44.624;20.378;2022-11-25T16:46:24;70.13;;;33.60;;
69392;SDS011;56582;44.624;20.378;2022-11-25T16:48:50;98.07;;;40.57;;
69392;SDS011;56582;44.624;20.378;2022-11-25T16:51:19;62.15;;;31.85;;
69392;SDS011;56582;44.624;20.378;2022-11-25T16:53:46;65.50;;;31.90;;
69392;SDS011;56582;44.624;20.378;2022-11-25T16:56:17;130.33;;;63.57;;
69392;SDS011;56582;44.624;20.378;2022-11-25T16:58:49;82.35;;;40.83;;
69392;SDS011;56582;44.624;20.378;2022-11-25T17:01:15;72.70;;;35.83;;
69392;SDS011;56582;44.624;20.378;2022-11-25T17:03:42;29.97;;;18.00;;
69392;SDS011;56582;44.624;20.378;2022-11-25T17:06:15;39.80;;;21.17;;